createdAt,value
2023-05-05T00:01:37.402Z,13.43
2023-05-05T00:04:24.287Z,11.38
2023-05-05T00:07:10.041Z,13.73
2023-05-05T00:09:55.394Z,17.05
2023-05-05T00:12:40.894Z,13.90
2023-05-05T00:15:27.538Z,20.38
2023-05-05T00:18:16.243Z,11.48
2023-05-05T00:21:01.730Z,18.50
2023-05-05T00:23:47.005Z,16.23
2023-05-05T00:26:32.628Z,14.77
2023-05-05T00:29:18.612Z,14.07
2023-05-05T00:32:04.438Z,16.38
2023-05-05T00:34:49.976Z,14.82
2023-05-05T00:37:36.053Z,15.77
2023-05-05T00:40:22.197Z,16.40
2023-05-05T00:43:08.268Z,14.65
2023-05-05T00:46:02.032Z,15.27
2023-05-05T00:51:33.047Z,15.75
2023-05-05T00:54:19.020Z,16.02
2023-05-05T00:57:04.930Z,13.75
2023-05-05T00:59:51.421Z,15.50
2023-05-05T01:02:37.318Z,13.07
2023-05-05T01:05:24.693Z,16.67
2023-05-05T01:08:34.780Z,16.83
2023-05-05T01:11:42.657Z,19.27
2023-05-05T01:14:40.840Z,18.48
2023-05-05T01:20:26.079Z,17.50
2023-05-05T01:23:21.481Z,19.90
2023-05-05T01:26:52.626Z,19.05
2023-05-05T01:29:47.610Z,23.83
2023-05-05T01:32:37.886Z,20.80
2023-05-05T01:35:29.292Z,19.17
2023-05-05T01:38:19.579Z,20.23
2023-05-05T01:41:11.946Z,17.23
2023-05-05T01:44:00.065Z,18.90
2023-05-05T01:46:47.354Z,19.85
2023-05-05T01:49:33.040Z,16.08
2023-05-05T01:52:18.542Z,17.50
2023-05-05T01:55:05.644Z,17.25
2023-05-05T01:57:52.122Z,16.25
2023-05-05T02:00:38.706Z,20.83
2023-05-05T02:03:26.907Z,16.13
2023-05-05T02:06:12.630Z,18.60
2023-05-05T02:08:58.426Z,19.75
2023-05-05T02:11:44.307Z,17.95
2023-05-05T02:14:30.060Z,16.50
2023-05-05T02:17:16.168Z,17.85
2023-05-05T02:20:02.392Z,17.67
2023-05-05T02:22:48.552Z,18.63
2023-05-05T02:25:38.572Z,21.48
2023-05-05T02:28:41.015Z,17.92
2023-05-05T02:31:27.406Z,17.15
2023-05-05T02:34:13.991Z,24.17
2023-05-05T02:37:00.936Z,24.13
2023-05-05T02:40:09.383Z,25.65
2023-05-05T02:42:59.182Z,22.02
2023-05-05T02:45:48.673Z,21.95
2023-05-05T02:48:35.989Z,20.95
2023-05-05T02:51:21.595Z,20.98
2023-05-05T02:54:07.151Z,23.23
2023-05-05T02:56:54.230Z,21.77
2023-05-05T02:59:50.959Z,23.80
2023-05-05T03:02:48.858Z,20.42
2023-05-05T03:06:00.694Z,19.77
2023-05-05T03:08:57.383Z,20.45
2023-05-05T03:11:48.300Z,22.90
2023-05-05T03:14:37.410Z,26.63
2023-05-05T03:17:25.080Z,26.92
2023-05-05T03:20:12.525Z,27.73
2023-05-05T03:23:04.226Z,25.17
2023-05-05T03:25:52.025Z,26.23
2023-05-05T03:28:58.022Z,31.85
2023-05-05T03:31:47.288Z,23.38
2023-05-05T03:34:32.845Z,45.63
2023-05-05T03:37:21.676Z,55.08
2023-05-05T03:40:08.178Z,58.10
2023-05-05T03:42:54.139Z,60.03
2023-05-05T03:45:40.216Z,131.50
2023-05-05T03:48:26.170Z,134.20
2023-05-05T03:51:12.911Z,39.63
2023-05-05T03:53:59.135Z,28.13
2023-05-05T03:56:44.658Z,24.63
2023-05-05T03:59:30.528Z,22.92
2023-05-05T04:02:18.288Z,26.50
2023-05-05T04:05:07.249Z,27.20
2023-05-05T04:07:52.909Z,26.25
2023-05-05T04:10:39.303Z,22.00
2023-05-05T04:13:25.156Z,22.90
2023-05-05T04:16:11.272Z,21.75
2023-05-05T04:18:57.771Z,26.10
2023-05-05T04:21:43.715Z,22.90
2023-05-05T04:24:32.287Z,27.52
2023-05-05T04:27:18.199Z,23.67
2023-05-05T04:30:04.933Z,30.58
2023-05-05T04:32:52.428Z,24.90
2023-05-05T04:35:38.411Z,39.55
2023-05-05T04:38:24.012Z,29.27
2023-05-05T04:41:10.467Z,22.20
2023-05-05T04:43:58.133Z,26.00
2023-05-05T04:46:45.018Z,21.52
2023-05-05T04:49:33.612Z,22.10
2023-05-05T04:52:19.538Z,21.10
2023-05-05T04:55:05.548Z,21.15
2023-05-05T04:57:52.036Z,22.60
2023-05-05T05:00:38.107Z,21.58
2023-05-05T05:03:24.034Z,27.63
2023-05-05T05:06:12.433Z,29.90
2023-05-05T05:08:57.858Z,30.90
2023-05-05T05:11:43.476Z,29.40
2023-05-05T05:14:29.915Z,46.22
2023-05-05T05:17:15.734Z,45.70
2023-05-05T05:20:01.550Z,41.58
2023-05-05T05:22:49.545Z,58.85
2023-05-05T05:25:37.227Z,51.50
2023-05-05T05:28:23.052Z,36.40
2023-05-05T05:31:13.035Z,30.77
2023-05-05T05:33:58.542Z,24.45
2023-05-05T05:36:44.086Z,23.30
2023-05-05T05:39:30.624Z,20.10
2023-05-05T05:42:16.396Z,21.42
2023-05-05T05:45:02.000Z,19.17
2023-05-05T05:47:48.437Z,21.17
2023-05-05T05:50:35.834Z,20.92
2023-05-05T05:56:09.850Z,20.38
2023-05-05T05:58:56.280Z,17.05
2023-05-05T06:01:42.082Z,18.63
2023-05-05T06:04:28.114Z,16.92
2023-05-05T06:07:14.022Z,17.17
2023-05-05T06:10:02.977Z,18.48
2023-05-05T06:12:57.359Z,18.13
2023-05-05T06:15:43.186Z,17.67
2023-05-05T06:18:31.222Z,14.90
2023-05-05T06:21:16.755Z,16.08
2023-05-05T06:24:02.239Z,20.45
2023-05-05T06:26:48.008Z,17.52
2023-05-05T06:29:33.490Z,13.25
2023-05-05T06:32:20.294Z,19.10
2023-05-05T06:35:07.338Z,15.55
2023-05-05T06:37:53.019Z,16.13
2023-05-05T06:40:38.641Z,17.08
2023-05-05T06:43:23.986Z,14.98
2023-05-05T06:46:15.681Z,16.00
2023-05-05T06:49:01.696Z,17.60
2023-05-05T06:51:46.986Z,18.63
2023-05-05T06:54:32.514Z,17.52
2023-05-05T06:57:18.003Z,18.02
2023-05-05T07:00:06.115Z,18.10
2023-05-05T07:02:52.099Z,16.65
2023-05-05T07:05:37.918Z,16.48
2023-05-05T07:08:23.359Z,15.02
2023-05-05T07:11:08.827Z,15.60
2023-05-05T07:13:54.002Z,16.52
2023-05-05T07:16:39.580Z,16.25
2023-05-05T07:19:25.339Z,14.80
2023-05-05T07:22:10.778Z,14.98
2023-05-05T07:24:56.384Z,17.50
2023-05-05T07:27:41.765Z,17.08
2023-05-05T07:30:27.185Z,16.05
2023-05-05T07:33:13.130Z,15.15
2023-05-05T07:35:58.448Z,15.98
2023-05-05T07:38:44.230Z,15.48
2023-05-05T07:41:29.941Z,15.48
2023-05-05T07:44:17.110Z,15.40
2023-05-05T07:47:02.872Z,16.35
2023-05-05T07:49:48.763Z,14.73
2023-05-05T07:52:46.122Z,16.20
2023-05-05T07:55:33.735Z,13.45
2023-05-05T07:58:19.112Z,14.68
2023-05-05T08:01:06.538Z,14.75
2023-05-05T08:03:52.408Z,13.68
2023-05-05T08:06:38.351Z,14.32
2023-05-05T08:09:23.627Z,13.43
2023-05-05T08:12:09.206Z,12.27
2023-05-05T08:14:54.489Z,12.65
2023-05-05T08:17:52.350Z,14.93
2023-05-05T08:20:38.130Z,13.90
2023-05-05T08:23:23.778Z,13.95
2023-05-05T08:26:12.001Z,11.85
2023-05-05T08:29:00.805Z,13.77
2023-05-05T08:31:46.435Z,12.70
2023-05-05T08:34:31.865Z,12.52
2023-05-05T08:37:19.004Z,12.77
2023-05-05T08:40:05.424Z,11.57
2023-05-05T08:42:51.159Z,10.20
2023-05-05T08:45:36.971Z,12.32
2023-05-05T08:48:23.485Z,9.40
2023-05-05T08:54:02.592Z,12.27
2023-05-05T08:56:50.698Z,9.30
2023-05-05T08:59:37.304Z,10.68
2023-05-05T09:02:24.564Z,9.60
2023-05-05T09:05:10.559Z,7.13
2023-05-05T09:07:56.192Z,11.32
2023-05-05T09:10:42.169Z,5.68
2023-05-05T09:13:27.719Z,9.90
2023-05-05T09:16:13.295Z,9.68
2023-05-05T09:19:05.294Z,10.30
2023-05-05T09:21:51.134Z,9.95
2023-05-05T09:24:36.450Z,8.63
2023-05-05T09:27:23.524Z,9.02
2023-05-05T09:30:10.582Z,18.92
2023-05-05T09:32:56.399Z,11.95
2023-05-05T09:35:52.852Z,6.47
2023-05-05T09:38:38.598Z,6.60
2023-05-05T09:41:37.557Z,7.90
2023-05-05T09:44:37.571Z,7.45
2023-05-05T09:47:34.927Z,5.85
2023-05-05T09:50:21.489Z,5.93
2023-05-05T09:53:08.014Z,4.35
2023-05-05T09:56:00.987Z,8.20
2023-05-05T09:58:46.756Z,5.97
2023-05-05T10:01:32.703Z,8.95
2023-05-05T10:04:28.916Z,5.07
2023-05-05T10:07:27.340Z,12.73
2023-05-05T10:10:20.569Z,5.85
2023-05-05T10:13:10.136Z,6.57
2023-05-05T10:15:57.255Z,5.50
2023-05-05T10:18:46.501Z,6.55
2023-05-05T10:21:34.327Z,6.32
2023-05-05T10:24:26.739Z,6.05
2023-05-05T10:27:17.955Z,5.80
2023-05-05T10:30:04.914Z,5.97
2023-05-05T10:33:03.569Z,6.55
2023-05-05T10:35:57.257Z,6.82
2023-05-05T10:38:43.089Z,5.88
2023-05-05T10:41:28.721Z,6.22
2023-05-05T10:44:14.838Z,6.53
2023-05-05T10:47:00.513Z,6.00
2023-05-05T10:50:00.468Z,6.20
2023-05-05T10:53:04.992Z,6.38
2023-05-05T10:56:04.433Z,6.28
2023-05-05T10:58:59.841Z,6.22
2023-05-05T11:01:45.989Z,6.55
2023-05-05T11:04:31.914Z,7.03
2023-05-05T11:07:24.048Z,6.63
2023-05-05T11:10:12.276Z,6.88
2023-05-05T11:12:59.301Z,6.45
2023-05-05T11:15:45.408Z,6.20
2023-05-05T11:18:33.813Z,6.43
2023-05-05T11:21:19.594Z,6.07
2023-05-05T11:24:42.208Z,7.47
2023-05-05T11:28:17.198Z,7.88
2023-05-05T11:31:03.180Z,8.15
2023-05-05T11:33:48.588Z,5.60
2023-05-05T11:36:40.913Z,7.15
2023-05-05T11:39:36.432Z,11.02
2023-05-05T11:42:26.627Z,7.50
2023-05-05T11:45:24.986Z,7.82
2023-05-05T11:49:16.322Z,7.40
2023-05-05T11:52:13.077Z,6.90
2023-05-05T11:55:00.762Z,10.32
2023-05-05T11:57:46.381Z,5.72
2023-05-05T12:00:32.749Z,7.28
2023-05-05T12:03:18.220Z,6.20
2023-05-05T12:06:04.714Z,9.18
2023-05-05T12:08:50.586Z,6.15
2023-05-05T12:11:35.814Z,6.32
2023-05-05T12:14:21.838Z,5.25
2023-05-05T12:17:08.220Z,5.90
2023-05-05T12:19:54.808Z,5.65
2023-05-05T12:22:40.646Z,5.57
2023-05-05T12:25:26.584Z,6.07
2023-05-05T12:28:12.534Z,4.50
2023-05-05T12:30:59.054Z,5.55
2023-05-05T12:33:45.412Z,5.82
2023-05-05T12:36:31.134Z,4.63
2023-05-05T12:39:16.834Z,6.80
2023-05-05T12:42:06.429Z,6.72
2023-05-05T12:44:52.218Z,7.05
2023-05-05T12:47:38.462Z,7.22
2023-05-05T12:50:32.000Z,7.13
2023-05-05T12:53:25.584Z,9.85
2023-05-05T12:56:43.571Z,10.63
2023-05-05T12:59:30.731Z,6.88
2023-05-05T13:07:51.919Z,7.18
2023-05-05T13:10:37.921Z,7.43
2023-05-05T13:13:23.554Z,6.63
2023-05-05T13:16:09.010Z,7.53
2023-05-05T13:18:55.542Z,6.30
2023-05-05T13:21:41.733Z,5.90
2023-05-05T13:24:42.236Z,5.82
2023-05-05T13:27:33.337Z,6.80
2023-05-05T13:30:20.633Z,7.13
2023-05-05T13:33:06.015Z,6.50
2023-05-05T13:35:51.471Z,5.85
2023-05-05T13:38:37.475Z,5.68
2023-05-05T13:41:23.111Z,5.93
2023-05-05T13:44:08.534Z,7.72
2023-05-05T13:46:59.508Z,6.72
2023-05-05T13:49:46.762Z,6.28
2023-05-05T13:52:33.454Z,6.03
2023-05-05T13:55:19.377Z,8.30
2023-05-05T13:58:05.336Z,5.50
2023-05-05T14:00:51.686Z,5.47
2023-05-05T14:03:39.577Z,7.38
2023-05-05T14:06:26.316Z,5.50
2023-05-05T14:09:13.128Z,4.95
2023-05-05T14:11:59.106Z,4.88
2023-05-05T14:14:45.020Z,7.03
2023-05-05T14:17:30.786Z,4.72
2023-05-05T14:20:16.269Z,5.55
2023-05-05T14:23:01.761Z,5.20
2023-05-05T14:25:47.699Z,6.18
2023-05-05T14:28:33.336Z,5.55
2023-05-05T14:31:18.958Z,5.30
2023-05-05T14:34:04.399Z,5.07
2023-05-05T14:36:49.925Z,5.10
2023-05-05T14:39:35.616Z,4.97
2023-05-05T14:42:21.091Z,6.10
2023-05-05T14:45:08.937Z,5.82
2023-05-05T14:47:54.589Z,5.53
2023-05-05T14:50:42.260Z,5.93
2023-05-05T14:53:27.606Z,4.95
2023-05-05T14:56:13.685Z,5.18
2023-05-05T14:58:58.960Z,5.00
2023-05-05T15:01:44.630Z,4.93
2023-05-05T15:04:36.034Z,6.32
2023-05-05T15:07:22.762Z,13.05
2023-05-05T15:10:09.139Z,6.75
2023-05-05T15:12:54.586Z,4.60
2023-05-05T15:15:40.458Z,9.02
2023-05-05T15:19:32.326Z,8.75
2023-05-05T15:22:26.148Z,7.25
2023-05-05T15:25:16.975Z,5.35
2023-05-05T15:28:02.680Z,7.22
2023-05-05T15:30:48.028Z,6.35
2023-05-05T15:33:33.683Z,5.97
2023-05-05T15:36:22.820Z,6.78
2023-05-05T15:39:08.443Z,5.65
2023-05-05T15:41:53.760Z,6.43
2023-05-05T15:44:39.706Z,7.47
2023-05-05T15:47:24.991Z,9.25
2023-05-05T15:50:10.946Z,5.95
2023-05-05T15:52:57.381Z,8.88
2023-05-05T15:55:43.189Z,6.47
2023-05-05T15:58:28.549Z,7.63
2023-05-05T16:01:13.767Z,18.73
2023-05-05T16:04:01.285Z,6.45
2023-05-05T16:06:47.101Z,7.00
2023-05-05T16:09:32.477Z,6.15
2023-05-05T16:12:20.780Z,6.22
2023-05-05T16:15:07.111Z,5.88
2023-05-05T16:17:52.924Z,17.60
2023-05-05T16:20:38.453Z,12.15
2023-05-05T16:23:24.125Z,10.52
2023-05-05T16:26:09.926Z,6.95
2023-05-05T16:28:55.253Z,6.60
2023-05-05T16:31:41.104Z,6.40
2023-05-05T16:34:26.821Z,6.93
2023-05-05T16:37:12.777Z,4.90
2023-05-05T16:39:58.405Z,5.15
2023-05-05T16:42:44.635Z,8.25
2023-05-05T16:45:31.654Z,4.97
2023-05-05T16:51:05.357Z,6.00
2023-05-05T16:53:51.310Z,4.93
2023-05-05T16:56:39.361Z,4.32
2023-05-05T16:59:27.070Z,6.63
2023-05-05T17:07:44.943Z,9.13
2023-05-05T17:10:30.596Z,6.40
2023-05-05T17:13:17.397Z,7.18
2023-05-05T17:16:05.473Z,10.15
2023-05-05T17:18:53.897Z,10.35
2023-05-05T17:21:39.308Z,12.23
2023-05-05T17:24:26.119Z,8.98
2023-05-05T17:27:12.777Z,11.13
2023-05-05T17:29:58.802Z,9.95
2023-05-05T17:32:44.915Z,15.95
2023-05-05T17:35:30.465Z,10.25
2023-05-05T17:38:16.149Z,19.20
2023-05-05T17:41:03.299Z,16.10
2023-05-05T17:43:49.634Z,12.90
2023-05-05T17:46:35.224Z,8.18
2023-05-05T17:49:28.334Z,7.05
2023-05-05T17:52:16.252Z,8.75
2023-05-05T17:55:01.709Z,6.57
2023-05-05T17:57:47.554Z,9.35
2023-05-05T18:00:33.067Z,7.35
2023-05-05T18:03:18.648Z,9.43
2023-05-05T18:06:04.643Z,9.02
2023-05-05T18:08:50.047Z,25.42
2023-05-05T18:11:35.911Z,10.00
2023-05-05T18:14:23.000Z,15.73
2023-05-05T18:19:54.636Z,12.77
2023-05-05T18:22:39.993Z,10.18
2023-05-05T18:25:26.266Z,11.63
2023-05-05T18:28:12.341Z,7.15
2023-05-05T18:30:58.252Z,9.48
2023-05-05T18:33:46.069Z,13.57
2023-05-05T18:36:33.247Z,10.52
2023-05-05T18:39:19.311Z,15.88
2023-05-05T18:42:05.388Z,15.80
2023-05-05T18:44:51.456Z,16.95
2023-05-05T18:47:38.338Z,15.68
2023-05-05T18:50:24.058Z,27.58
2023-05-05T18:53:10.847Z,24.80
2023-05-05T18:56:03.504Z,23.70
2023-05-05T18:58:53.963Z,15.90
2023-05-05T19:01:42.992Z,13.25
2023-05-05T19:04:31.691Z,9.07
2023-05-05T19:07:35.518Z,10.93
2023-05-05T19:10:23.429Z,11.18
2023-05-05T19:13:15.060Z,10.45
2023-05-05T19:16:00.894Z,7.50
2023-05-05T19:18:48.223Z,11.85
2023-05-05T19:21:34.905Z,10.35
2023-05-05T19:24:30.211Z,12.07
2023-05-05T19:27:19.223Z,8.95
2023-05-05T19:30:08.795Z,9.95
2023-05-05T19:33:04.153Z,7.50
2023-05-05T19:36:01.280Z,9.07
2023-05-05T19:38:49.695Z,6.88
2023-05-05T19:41:35.661Z,8.48
2023-05-05T19:44:23.878Z,6.65
2023-05-05T19:47:11.443Z,7.55
2023-05-05T19:49:59.964Z,10.55
2023-05-05T19:53:37.130Z,10.02
2023-05-05T19:56:28.284Z,13.20
2023-05-05T19:59:14.718Z,15.85
2023-05-05T20:02:02.672Z,10.48
2023-05-05T20:07:33.444Z,13.90
2023-05-05T20:10:19.295Z,9.05
2023-05-05T20:13:07.494Z,8.50
2023-05-05T20:15:53.609Z,11.38
2023-05-05T20:18:40.488Z,10.13
2023-05-05T20:21:27.215Z,8.70
2023-05-05T20:24:12.746Z,10.77
2023-05-05T20:26:58.315Z,12.20
2023-05-05T20:29:48.310Z,14.38
2023-05-05T20:32:33.994Z,21.33
2023-05-05T20:35:21.373Z,19.75
2023-05-05T20:38:07.386Z,14.30
2023-05-05T20:40:53.414Z,19.05
2023-05-05T20:43:40.101Z,14.85
2023-05-05T20:46:25.641Z,16.50
2023-05-05T20:49:11.607Z,10.80
2023-05-05T20:51:59.468Z,12.80
2023-05-05T20:54:45.720Z,10.38
2023-05-05T20:57:31.437Z,9.90
2023-05-05T21:00:17.653Z,9.15
2023-05-05T21:03:07.030Z,11.45
2023-05-05T21:05:52.656Z,8.77
2023-05-05T21:08:39.852Z,9.57
2023-05-05T21:11:25.607Z,7.78
2023-05-05T21:14:12.090Z,10.98
2023-05-05T21:16:58.249Z,9.27
2023-05-05T21:19:44.246Z,8.63
2023-05-05T21:22:29.946Z,8.52
2023-05-05T21:25:20.665Z,9.65
2023-05-05T21:28:06.709Z,9.73
2023-05-05T21:33:42.772Z,9.93
2023-05-05T21:36:29.318Z,9.25
2023-05-05T21:39:14.695Z,11.50
2023-05-05T21:42:00.680Z,11.30
2023-05-05T21:44:47.135Z,11.18
2023-05-05T21:47:32.879Z,10.07
2023-05-05T21:50:18.454Z,10.43
2023-05-05T21:53:06.064Z,8.95
2023-05-05T21:55:52.454Z,8.50
2023-05-05T21:58:40.255Z,9.45
2023-05-05T22:01:26.292Z,8.30
2023-05-05T22:04:11.924Z,9.40
2023-05-05T22:06:58.766Z,10.30
2023-05-05T22:09:44.601Z,11.15
2023-05-05T22:12:30.500Z,12.55
2023-05-05T22:15:19.272Z,9.57
2023-05-05T22:18:05.080Z,8.90
2023-05-05T22:21:00.716Z,13.90
2023-05-05T22:23:46.501Z,10.82
2023-05-05T22:26:31.666Z,12.68
2023-05-05T22:29:17.002Z,9.13
2023-05-05T22:32:02.377Z,9.25
2023-05-05T22:34:47.678Z,8.48
2023-05-05T22:37:33.939Z,9.73
2023-05-05T22:40:17.312Z,8.98
2023-05-05T22:43:03.042Z,12.55
2023-05-05T22:45:50.044Z,9.30
2023-05-05T22:48:36.725Z,13.45
2023-05-05T22:51:23.432Z,12.27
2023-05-05T22:54:09.615Z,9.70
2023-05-05T22:56:56.784Z,11.05
2023-05-05T22:59:43.120Z,10.98
2023-05-05T23:02:33.081Z,10.38
2023-05-05T23:05:20.527Z,10.40
2023-05-05T23:10:53.312Z,9.10
2023-05-05T23:13:39.336Z,11.32
2023-05-05T23:16:24.947Z,16.50
2023-05-05T23:19:10.522Z,10.68
2023-05-05T23:21:57.108Z,10.27
2023-05-05T23:24:43.618Z,11.45
2023-05-05T23:27:29.309Z,12.40
2023-05-05T23:30:16.279Z,12.85
2023-05-05T23:33:02.268Z,12.23
2023-05-05T23:35:47.977Z,10.95
2023-05-05T23:38:33.357Z,14.07
2023-05-05T23:41:19.361Z,11.02
2023-05-05T23:44:04.922Z,12.32
2023-05-05T23:46:50.188Z,9.57
2023-05-05T23:49:35.816Z,11.05
2023-05-05T23:52:21.880Z,10.93
2023-05-05T23:55:08.471Z,8.95
2023-05-05T23:57:54.130Z,10.57
